Time;durP1;ratioP1;P1;durP2;ratioP2;P2;SDS_P1;SDS_P2;PMS_P1;PMS_P2;Temp;Humidity;BMP_temperature;BMP_pressure;BME280_temperature;BME280_humidity;BME280_pressure;Samples;Min_cycle;Max_cycle;Signal;HPM_P1;HPM_P2
2021/06/04 00:00:28;;;;;;;7.70;5.40;;;;;;;12.59;74.28;95986.84;4823428;29;20090;-69
2021/06/04 00:03:20;;;;;;;8.02;5.43;;;;;;;12.55;74.08;95996.38;4822493;29;20478;-70
2021/06/04 00:05:50;;;;;;;8.65;5.25;;;;;;;12.52;74.00;95995.03;4823023;29;20050;-71
2021/06/04 00:08:18;;;;;;;9.70;5.93;;;;;;;12.45;74.66;95997.19;4830432;29;20445;-70
2021/06/04 00:10:51;;;;;;;9.23;5.53;;;;;;;12.43;74.59;95996.69;4827069;29;20163;-70
2021/06/04 00:13:33;;;;;;;9.02;5.40;;;;;;;12.45;74.06;95997.19;4837420;29;20078;-70
2021/06/04 00:16:08;;;;;;;9.52;5.80;;;;;;;12.43;74.18;95999.31;4823284;29;20046;-70
2021/06/04 00:18:36;;;;;;;8.68;5.25;;;;;;;12.36;74.96;96002.22;4837939;29;20477;-70
2021/06/04 00:21:03;;;;;;;8.32;5.45;;;;;;;12.30;75.22;96006.72;4822721;29;20039;-74
2021/06/04 00:23:29;;;;;;;10.18;5.50;;;;;;;12.29;74.94;96002.50;4823833;29;20201;-74
2021/06/04 00:25:55;;;;;;;10.68;5.70;;;;;;;12.28;75.17;96008.84;4823464;29;20679;-74
2021/06/04 00:28:21;;;;;;;8.50;5.35;;;;;;;12.24;75.03;96007.81;4836668;29;20054;-74
2021/06/04 00:30:46;;;;;;;10.85;5.30;;;;;;;12.24;75.15;96007.81;4823110;29;20103;-74
2021/06/04 00:33:12;;;;;;;8.02;5.70;;;;;;;12.20;74.77;96001.47;4823678;29;20046;-74
2021/06/04 00:35:39;;;;;;;8.52;5.57;;;;;;;12.17;74.59;96007.28;4822574;29;20121;-74
2021/06/04 00:38:08;;;;;;;8.00;5.40;;;;;;;12.09;74.94;96010.47;4837149;29;20049;-73
2021/06/04 00:40:41;;;;;;;10.35;5.60;;;;;;;12.11;74.48;96008.34;4822670;29;20046;-74
2021/06/04 00:43:08;;;;;;;8.25;5.40;;;;;;;12.06;75.04;96005.72;4810151;29;20492;-74
2021/06/04 00:45:38;;;;;;;7.32;5.30;;;;;;;11.98;75.13;96008.88;4837095;29;20090;-73
2021/06/04 00:48:04;;;;;;;6.03;5.13;;;;;;;11.92;74.88;96006.25;4822498;29;20073;-73
2021/06/04 00:50:36;;;;;;;9.57;5.28;;;;;;;11.89;75.45;96006.75;4822364;29;20045;-74
2021/06/04 00:53:03;;;;;;;9.02;5.30;;;;;;;11.85;76.03;96011.00;4823404;29;20489;-73
2021/06/04 00:55:30;;;;;;;7.32;5.13;;;;;;;11.86;74.87;96004.66;4823523;29;20070;-74
2021/06/04 00:57:56;;;;;;;6.93;4.95;;;;;;;11.90;74.85;96002.28;4821689;29;20061;-73
2021/06/04 01:00:36;;;;;;;8.10;5.55;;;;;;;11.77;75.80;96008.88;4823052;29;20513;-74
2021/06/04 01:03:03;;;;;;;9.88;5.57;;;;;;;11.71;76.41;96009.91;4836932;29;20057;-74
2021/06/04 01:05:30;;;;;;;7.18;5.50;;;;;;;11.66;76.56;96016.00;4837107;29;20051;-74
2021/06/04 01:08:11;;;;;;;7.63;5.50;;;;;;;11.67;76.93;96016.78;4813909;29;20582;-73
2021/06/04 01:10:39;;;;;;;6.57;5.30;;;;;;;11.64;76.32;96017.28;4822919;29;20054;-74
2021/06/04 01:13:14;;;;;;;7.22;5.25;;;;;;;11.61;76.33;96019.41;4822095;29;20544;-75
2021/06/04 01:15:51;;;;;;;;;;;;;;;11.61;76.07;96027.31;4836759;29;20053;-74
2021/06/04 01:18:40;;;;;;;7.88;5.25;;;;;;;11.55;75.95;96027.56;4823085;29;19984;-73
2021/06/04 01:21:16;;;;;;;7.28;5.13;;;;;;;11.52;75.94;96023.63;4817891;29;20054;-74
2021/06/04 01:23:52;;;;;;;7.35;5.25;;;;;;;11.50;76.00;96025.72;4823095;29;20052;-75
2021/06/04 01:26:45;;;;;;;6.07;4.82;;;;;;;11.52;75.45;96026.28;4822521;29;20470;-75
2021/06/04 01:29:16;;;;;;;8.20;5.47;;;;;;;11.40;77.00;96031.00;4820774;29;20070;-74
2021/06/04 01:31:49;;;;;;;6.93;5.35;;;;;;;11.39;76.53;96029.41;4823351;29;20462;-74
2021/06/04 01:34:17;;;;;;;9.65;5.40;;;;;;;11.41;76.25;96029.94;4820544;29;20058;-74
2021/06/04 01:36:52;;;;;;;8.82;5.82;;;;;;;11.35;77.02;96033.59;4820470;29;20713;-75
2021/06/04 01:39:25;;;;;;;6.88;5.00;;;;;;;11.32;76.58;96028.88;4820094;29;20467;-74
2021/06/04 01:41:54;;;;;;;7.40;5.55;;;;;;;11.25;77.17;96037.81;4820211;29;20042;-74
2021/06/04 01:44:43;;;;;;;8.05;5.45;;;;;;;11.20;77.72;96037.78;4834708;29;20053;-74
2021/06/04 01:47:13;;;;;;;8.95;5.82;;;;;;;11.09;78.53;96036.19;4835461;29;20099;-74
2021/06/04 01:49:41;;;;;;;9.68;5.53;;;;;;;11.13;78.57;96036.47;4835118;29;20083;-75
2021/06/04 01:52:19;;;;;;;8.18;6.00;;;;;;;11.20;78.30;96042.28;4821388;29;20038;-74
2021/06/04 01:55:00;;;;;;;9.77;5.88;;;;;;;11.25;77.65;96040.44;4822009;29;20106;-73
2021/06/04 01:57:31;;;;;;;9.88;5.70;;;;;;;11.19;77.83;96035.41;4832837;29;20069;-74
2021/06/04 02:00:00;;;;;;;8.38;5.22;;;;;;;11.09;77.76;96028.28;4804252;29;20195;-73
2021/06/04 02:02:33;;;;;;;8.02;5.60;;;;;;;10.99;78.40;96025.63;4820643;29;20050;-74
2021/06/04 02:04:59;;;;;;;8.10;5.63;;;;;;;10.91;78.40;96030.34;4822115;29;20161;-74
2021/06/04 02:07:32;;;;;;;9.38;5.70;;;;;;;10.86;78.54;96025.06;4821351;29;20125;-73
2021/06/04 02:10:00;;;;;;;8.93;5.38;;;;;;;10.82;78.75;96026.63;4822549;29;20049;-74
2021/06/04 02:12:26;;;;;;;8.80;5.85;;;;;;;10.82;78.92;96029.25;4821971;29;20066;-74
2021/06/04 02:15:26;;;;;;;8.32;5.03;;;;;;;10.83;78.39;96033.50;4820879;29;20042;-74
2021/06/04 02:17:56;;;;;;;8.90;5.80;;;;;;;10.78;78.24;96041.34;4821704;29;20051;-73
2021/06/04 02:20:40;;;;;;;8.23;5.90;;;;;;;10.74;77.82;96035.00;4835399;29;20169;-74
2021/06/04 02:23:13;;;;;;;13.82;5.78;;;;;;;10.72;78.41;96039.75;4821726;29;20061;-74
2021/06/04 02:25:41;;;;;;;9.35;5.20;;;;;;;10.68;78.27;96030.78;4821381;29;20676;-74
2021/06/04 02:28:19;;;;;;;11.85;5.88;;;;;;;10.63;78.18;96038.66;4822057;29;20057;-74
2021/06/04 02:30:58;;;;;;;9.18;5.80;;;;;;;10.64;78.29;96027.06;4821416;29;20500;-74
2021/06/04 02:33:33;;;;;;;8.68;5.35;;;;;;;10.72;78.37;96027.38;4821526;29;20050;-74
2021/06/04 02:36:03;;;;;;;8.30;4.90;;;;;;;10.73;78.22;96028.16;4821244;29;20046;-74
2021/06/04 02:38:52;;;;;;;7.35;5.40;;;;;;;10.71;78.15;96027.63;4834650;29;20067;-74
2021/06/04 02:41:28;;;;;;;6.60;5.38;;;;;;;10.62;78.87;96031.81;4832819;29;20533;-74
2021/06/04 02:43:59;;;;;;;8.43;5.75;;;;;;;10.55;79.45;96032.03;4836237;29;20042;-74
2021/06/04 02:46:33;;;;;;;7.28;5.20;;;;;;;10.49;79.03;96033.84;4820871;29;20077;-74
2021/06/04 02:49:01;;;;;;;6.88;5.00;;;;;;;10.50;78.64;96030.19;4821810;29;20050;-74
2021/06/04 02:51:48;;;;;;;8.20;5.85;;;;;;;10.47;79.03;96022.78;4820982;29;20053;-74
2021/06/04 02:54:18;;;;;;;9.23;5.90;;;;;;;10.42;79.26;96022.75;4805856;29;20531;-74
2021/06/04 02:56:51;;;;;;;7.47;5.75;;;;;;;10.37;79.02;96020.09;4820775;29;20307;-74
2021/06/04 02:59:21;;;;;;;10.65;5.70;;;;;;;10.34;78.99;96016.16;4821011;29;20043;-74
2021/06/04 03:01:53;;;;;;;7.13;5.35;;;;;;;10.36;78.33;96013.28;4821837;29;20050;-74
2021/06/04 03:04:20;;;;;;;7.00;5.25;;;;;;;10.35;78.45;96016.94;4821320;29;20054;-74
2021/06/04 03:06:51;;;;;;;8.45;5.75;;;;;;;10.30;79.40;96016.88;4820251;29;20077;-75
2021/06/04 03:09:22;;;;;;;10.73;5.43;;;;;;;10.32;79.66;96017.41;4821285;29;20058;-74
2021/06/04 03:11:51;;;;;;;8.55;5.68;;;;;;;10.31;79.37;96026.34;4821388;29;20053;-74
2021/06/04 03:14:18;;;;;;;6.93;5.10;;;;;;;10.19;79.89;96024.69;4820958;29;20442;-74
2021/06/04 03:16:45;;;;;;;7.00;5.20;;;;;;;10.17;80.57;96032.06;4820305;29;20194;-74
2021/06/04 03:19:14;;;;;;;8.32;5.07;;;;;;;10.25;79.76;96032.63;4821111;29;20520;-74
2021/06/04 03:21:45;;;;;;;6.80;5.50;;;;;;;10.25;80.05;96030.00;4820741;29;20118;-74
2021/06/04 03:24:15;;;;;;;7.47;5.30;;;;;;;10.21;80.33;96027.88;4821306;29;20468;-74
2021/06/04 03:26:42;;;;;;;10.18;5.20;;;;;;;10.20;79.94;96025.50;4820435;29;20047;-74
2021/06/04 03:29:12;;;;;;;7.15;5.40;;;;;;;10.14;80.12;96032.56;4820579;29;20053;-74
2021/06/04 03:31:42;;;;;;;7.30;5.53;;;;;;;10.13;79.79;96041.50;4835218;29;20127;-74
2021/06/04 03:34:08;;;;;;;8.18;5.75;;;;;;;10.07;80.65;96042.53;4820998;29;20390;-74
2021/06/04 03:36:40;;;;;;;6.63;5.65;;;;;;;10.11;80.74;96048.06;4820526;29;20523;-74
2021/06/04 03:39:09;;;;;;;7.55;5.85;;;;;;;10.07;80.73;96047.78;4820428;29;20125;-74
2021/06/04 03:41:38;;;;;;;7.47;5.57;;;;;;;10.05;80.94;96044.59;4821177;29;20073;-73
2021/06/04 03:44:07;;;;;;;8.35;5.72;;;;;;;10.03;81.08;96041.44;4820609;29;20054;-74
2021/06/04 03:46:32;;;;;;;8.30;5.88;;;;;;;10.05;81.29;96049.84;4819639;29;20050;-74
2021/06/04 03:48:59;;;;;;;7.07;5.70;;;;;;;10.10;80.83;96042.00;4821002;29;20054;-74
2021/06/04 03:51:30;;;;;;;8.13;5.50;;;;;;;10.16;80.31;96046.25;4820450;29;20477;-74
2021/06/04 03:53:55;;;;;;;11.90;5.55;;;;;;;10.10;80.70;96044.66;4820802;29;20053;-74
2021/06/04 03:56:23;;;;;;;8.13;6.20;;;;;;;10.07;80.85;96042.53;4834101;29;20070;-74
2021/06/04 03:58:49;;;;;;;8.68;5.60;;;;;;;10.14;79.88;96043.09;4820326;29;20042;-74
2021/06/04 04:01:34;;;;;;;11.50;5.95;;;;;;;10.22;78.80;96050.50;4820954;29;20068;-74
2021/06/04 04:04:00;;;;;;;8.70;5.70;;;;;;;10.23;79.21;96052.09;4820297;29;20339;-75
2021/06/04 04:06:26;;;;;;;7.78;5.55;;;;;;;10.22;78.96;96049.72;4833854;29;20050;-74
2021/06/04 04:08:52;;;;;;;7.88;5.82;;;;;;;10.23;79.62;96056.56;4834709;29;20050;-74
2021/06/04 04:11:18;;;;;;;8.70;5.60;;;;;;;10.18;79.28;96054.66;4820224;29;20195;-74
2021/06/04 04:13:44;;;;;;;10.00;5.88;;;;;;;10.17;79.46;96058.38;4820237;29;20050;-74
2021/06/04 04:16:09;;;;;;;8.30;5.82;;;;;;;10.16;79.71;96062.03;4821934;29;20057;-74
2021/06/04 04:18:35;;;;;;;8.00;5.40;;;;;;;10.17;79.88;96055.75;4823558;29;20509;-74
2021/06/04 04:21:04;;;;;;;12.02;5.47;;;;;;;10.19;79.15;96051.00;4820905;29;20053;-74
2021/06/04 04:23:34;;;;;;;8.85;5.25;;;;;;;10.20;78.92;96046.53;4823833;29;20569;-73
2021/06/04 04:26:01;;;;;;;7.57;5.65;;;;;;;10.18;79.20;96046.78;4823066;29;20046;-74
2021/06/04 04:28:30;;;;;;;12.23;5.63;;;;;;;10.20;79.54;96042.06;4822713;29;20050;-74
2021/06/04 04:30:57;;;;;;;7.25;5.47;;;;;;;10.20;79.70;96047.34;4826676;29;20109;-74
2021/06/04 04:33:23;;;;;;;8.82;5.70;;;;;;;10.26;79.71;96044.72;4822993;29;20046;-74
2021/06/04 04:35:48;;;;;;;7.60;5.45;;;;;;;10.34;79.72;96046.91;4823225;29;20043;-74
2021/06/04 04:38:20;;;;;;;7.47;5.43;;;;;;;10.34;79.69;96047.72;4822794;29;20133;-74
2021/06/04 04:40:49;;;;;;;8.27;5.55;;;;;;;10.36;79.53;96047.47;4837736;29;20447;-73
2021/06/04 04:43:14;;;;;;;8.65;5.82;;;;;;;10.39;79.89;96049.59;4823220;29;20050;-74
2021/06/04 04:45:40;;;;;;;9.25;6.00;;;;;;;10.40;79.88;96053.78;4817230;29;20401;-73
2021/06/04 04:48:07;;;;;;;9.65;5.97;;;;;;;10.43;79.93;96050.66;4821455;29;20153;-74
2021/06/04 04:50:34;;;;;;;8.98;5.65;;;;;;;10.47;79.72;96051.72;4820175;29;20366;-73
2021/06/04 04:53:01;;;;;;;7.50;5.35;;;;;;;10.54;79.81;96052.31;4820854;29;20047;-73
2021/06/04 04:55:30;;;;;;;8.45;5.80;;;;;;;10.67;79.33;96055.50;4820323;29;20050;-73
2021/06/04 04:57:55;;;;;;;7.90;5.40;;;;;;;10.80;79.01;96056.88;4819846;29;20517;-74
2021/06/04 05:00:25;;;;;;;12.50;6.53;;;;;;;10.88;78.83;96057.19;4836406;29;20049;-72
2021/06/04 05:02:51;;;;;;;8.93;5.70;;;;;;;10.90;79.41;96055.09;4823043;29;20049;-73
2021/06/04 05:05:19;;;;;;;8.77;5.97;;;;;;;10.92;79.11;96058.25;4822835;29;20046;-73
2021/06/04 05:07:45;;;;;;;8.57;6.05;;;;;;;10.90;80.03;96055.09;4821299;29;20084;-72
2021/06/04 05:10:11;;;;;;;7.75;5.80;;;;;;;10.90;79.88;96054.28;4836740;29;20110;-72
2021/06/04 05:12:37;;;;;;;7.75;6.40;;;;;;;11.03;79.58;96066.19;4823044;29;20042;-72
2021/06/04 05:15:07;;;;;;;8.27;6.43;;;;;;;11.24;79.95;96067.84;4822374;29;20139;-71
2021/06/04 05:17:32;;;;;;;8.20;5.55;;;;;;;11.42;79.30;96061.31;4836227;29;20046;-72
2021/06/04 05:19:58;;;;;;;8.07;5.53;;;;;;;11.58;78.56;96059.50;4835439;29;20412;-73
2021/06/04 05:22:24;;;;;;;8.60;5.55;;;;;;;11.72;79.45;96056.31;4822359;29;20061;-73
2021/06/04 05:24:50;;;;;;;12.70;6.00;;;;;;;11.86;79.57;96061.88;4822731;29;20456;-72
2021/06/04 05:27:16;;;;;;;8.00;5.75;;;;;;;12.07;79.29;96060.06;4821287;29;20063;-72
2021/06/04 05:29:42;;;;;;;9.25;5.70;;;;;;;12.34;78.58;96064.25;4821531;29;20046;-72
2021/06/04 05:32:09;;;;;;;9.00;6.10;;;;;;;12.69;76.22;96070.53;4822643;29;20051;-72
2021/06/04 05:34:35;;;;;;;7.15;5.55;;;;;;;12.91;75.05;96073.59;4822307;29;20161;-72
2021/06/04 05:37:01;;;;;;;12.20;6.25;;;;;;;13.26;73.59;96069.22;4822229;29;20556;-73
2021/06/04 05:39:27;;;;;;;8.43;5.65;;;;;;;13.48;74.93;96078.66;4821570;29;20053;-73
2021/06/04 05:42:00;;;;;;;9.68;5.80;;;;;;;13.67;75.18;96078.81;4826412;29;20527;-73
2021/06/04 05:44:27;;;;;;;10.25;6.03;;;;;;;13.91;72.25;96073.63;4828684;29;20154;-73
2021/06/04 05:46:56;;;;;;;11.48;6.40;;;;;;;14.10;73.32;96072.94;4822291;29;20046;-73
2021/06/04 05:49:22;;;;;;;7.80;6.03;;;;;;;14.27;72.97;96086.56;4820597;29;20121;-72
2021/06/04 05:51:50;;;;;;;12.52;6.35;;;;;;;14.45;71.59;96076.31;4821911;29;20585;-72
2021/06/04 05:54:18;;;;;;;10.27;6.20;;;;;;;14.68;73.52;96077.44;4822144;29;20080;-73
2021/06/04 05:56:44;;;;;;;9.18;5.82;;;;;;;14.89;72.26;96080.66;4821991;29;20520;-72
2021/06/04 05:59:12;;;;;;;7.82;6.00;;;;;;;15.05;71.79;96079.41;4820708;29;20077;-72
2021/06/04 06:01:39;;;;;;;10.93;5.80;;;;;;;15.16;72.12;96081.94;4822115;29;20057;-72
2021/06/04 06:04:05;;;;;;;10.00;5.60;;;;;;;15.22;71.92;96078.16;4822351;29;20050;-73
2021/06/04 06:06:31;;;;;;;11.57;6.68;;;;;;;15.44;69.75;96087.41;4821296;29;20106;-73
2021/06/04 06:08:57;;;;;;;10.93;6.53;;;;;;;15.55;69.05;96086.22;4821183;29;20053;-73
2021/06/04 06:11:25;;;;;;;10.07;5.95;;;;;;;15.60;69.84;96088.78;4822132;29;20054;-73
2021/06/04 06:13:59;;;;;;;9.23;5.90;;;;;;;15.79;69.91;96101.28;4822161;29;20079;-73
2021/06/04 06:16:27;;;;;;;13.18;6.10;;;;;;;15.88;68.89;96096.91;4821405;29;20058;-73
2021/06/04 06:18:53;;;;;;;16.65;6.10;;;;;;;16.05;69.68;96102.47;4821817;29;20106;-73
2021/06/04 06:21:19;;;;;;;10.63;5.90;;;;;;;16.14;68.07;96101.81;4835243;29;20125;-72
2021/06/04 06:23:46;;;;;;;11.48;6.20;;;;;;;16.20;67.68;96101.44;4821835;29;20042;-72
2021/06/04 06:26:19;;;;;;;13.25;6.43;;;;;;;16.32;67.28;96108.16;4821674;29;20137;-71
2021/06/04 06:28:46;;;;;;;12.20;6.95;;;;;;;16.49;67.10;96112.94;4829591;29;20046;-72
2021/06/04 06:31:15;;;;;;;12.95;7.10;;;;;;;16.59;66.42;96112.75;4821812;29;20064;-72
2021/06/04 06:33:41;;;;;;;24.60;7.28;;;;;;;16.72;66.91;96112.00;4821979;29;20361;-72
2021/06/04 06:36:12;;;;;;;14.63;6.60;;;;;;;16.75;66.52;96116.72;4820561;29;20125;-72
2021/06/04 06:38:39;;;;;;;9.63;6.22;;;;;;;16.92;66.55;96110.88;4821476;29;20180;-72
2021/06/04 06:41:08;;;;;;;10.07;6.18;;;;;;;17.01;67.94;96110.97;4821719;29;20057;-72
2021/06/04 06:43:37;;;;;;;13.32;6.53;;;;;;;17.03;67.66;96115.97;4821055;29;20081;-72
2021/06/04 06:46:05;;;;;;;18.90;6.60;;;;;;;17.18;66.85;96112.22;4821258;29;20054;-72
2021/06/04 06:48:31;;;;;;;11.90;6.30;;;;;;;17.37;64.23;96115.56;4821438;29;20560;-72
2021/06/04 06:50:57;;;;;;;10.23;6.55;;;;;;;17.29;66.50;96118.91;4820958;29;20050;-72
2021/06/04 06:53:24;;;;;;;10.30;6.35;;;;;;;17.34;64.31;96115.34;4821143;29;20042;-72
2021/06/04 06:55:52;;;;;;;10.07;6.50;;;;;;;17.61;63.64;96125.16;4820703;29;20050;-72
2021/06/04 06:58:19;;;;;;;10.45;6.25;;;;;;;17.75;63.41;96120.59;4821476;29;20074;-72
2021/06/04 07:00:48;;;;;;;9.52;5.50;;;;;;;17.96;63.05;96125.50;4820902;29;20065;-72
2021/06/04 07:03:17;;;;;;;9.65;5.50;;;;;;;18.14;62.34;96121.84;4821364;29;20050;-72
2021/06/04 07:05:44;;;;;;;9.60;5.55;;;;;;;18.30;62.68;96129.50;4831515;29;20068;-72
2021/06/04 07:08:10;;;;;;;9.50;5.75;;;;;;;18.47;62.49;96126.94;4823506;29;20051;-72
2021/06/04 07:10:37;;;;;;;10.13;6.05;;;;;;;18.65;62.60;96119.06;4820784;29;20564;-72
2021/06/04 07:13:07;;;;;;;8.18;5.50;;;;;;;18.74;64.41;96127.09;4821080;29;20047;-72
2021/06/04 07:15:33;;;;;;;8.02;5.45;;;;;;;18.91;63.78;96127.19;4831155;29;20412;-72
2021/06/04 07:17:59;;;;;;;7.10;5.45;;;;;;;19.08;63.89;96123.81;4830197;29;20046;-72
2021/06/04 07:20:28;;;;;;;9.98;5.50;;;;;;;19.30;61.34;96116.81;4820630;29;20051;-72
2021/06/04 07:22:56;;;;;;;7.90;5.20;;;;;;;19.45;61.80;96123.56;4821412;29;20049;-73
2021/06/04 07:25:25;;;;;;;11.60;5.70;;;;;;;19.48;61.92;96123.75;4825780;29;20442;-72
2021/06/04 07:27:51;;;;;;;7.43;5.45;;;;;;;19.54;62.18;96119.84;4826587;29;20054;-73
2021/06/04 07:30:21;;;;;;;9.85;5.70;;;;;;;19.58;62.42;96132.56;4819861;29;20043;-72
2021/06/04 07:32:48;;;;;;;9.13;5.55;;;;;;;19.77;59.51;96127.72;4821246;29;20047;-72
2021/06/04 07:35:16;;;;;;;6.72;5.20;;;;;;;20.09;57.28;96125.69;4828140;29;20046;-72
2021/06/04 07:37:43;;;;;;;10.65;5.70;;;;;;;20.28;57.85;96132.59;4822166;29;20043;-72
2021/06/04 07:40:11;;;;;;;8.65;5.25;;;;;;;20.44;57.72;96125.66;4813999;29;20050;-73
2021/06/04 07:42:37;;;;;;;9.80;4.80;;;;;;;20.57;56.91;96130.03;4820508;29;20069;-72
2021/06/04 07:45:05;;;;;;;13.27;5.55;;;;;;;20.71;55.95;96118.38;4821015;29;20054;-72
2021/06/04 07:47:31;;;;;;;8.10;5.13;;;;;;;20.73;56.15;96121.50;4821800;29;20709;-73
2021/06/04 07:49:56;;;;;;;9.35;5.53;;;;;;;20.73;56.22;96126.84;4826349;29;20509;-73
2021/06/04 07:52:22;;;;;;;14.32;5.80;;;;;;;20.86;54.40;96114.38;4822479;29;20078;-72
2021/06/04 07:54:49;;;;;;;8.82;5.85;;;;;;;20.97;53.60;96120.19;4823614;29;20414;-72
2021/06/04 07:57:15;;;;;;;12.23;5.53;;;;;;;20.82;54.76;96122.28;4831502;29;20050;-72
2021/06/04 07:59:40;;;;;;;10.15;5.30;;;;;;;20.90;55.23;96121.47;4832160;29;20094;-72
2021/06/04 08:02:07;;;;;;;9.07;5.57;;;;;;;21.06;54.91;96127.06;4822497;29;20053;-72
2021/06/04 08:04:33;;;;;;;8.73;5.07;;;;;;;21.16;56.64;96123.25;4824024;29;20054;-72
2021/06/04 08:06:59;;;;;;;11.23;6.30;;;;;;;21.10;55.02;96124.53;4823045;29;20153;-72
2021/06/04 08:09:25;;;;;;;9.25;6.03;;;;;;;21.37;54.99;96122.50;4821911;29;20117;-70
2021/06/04 08:11:58;;;;;;;8.80;6.10;;;;;;;21.59;53.45;96119.56;4822000;29;20054;-72
2021/06/04 08:14:26;;;;;;;9.52;5.80;;;;;;;21.94;52.97;96124.66;4824113;29;20050;-72
2021/06/04 08:16:54;;;;;;;7.93;5.35;;;;;;;22.01;53.47;96123.34;4833787;29;20132;-72
2021/06/04 08:19:20;;;;;;;9.43;5.45;;;;;;;22.12;52.47;96129.88;4841348;29;20042;-72
2021/06/04 08:21:49;;;;;;;7.05;5.20;;;;;;;21.99;52.49;96126.34;4823459;29;20527;-74
2021/06/04 08:24:20;;;;;;;10.30;5.75;;;;;;;22.08;51.20;96128.97;4826180;29;20418;-72
2021/06/04 08:26:45;;;;;;;12.77;5.95;;;;;;;22.11;51.24;96122.94;4823644;29;20160;-72
2021/06/04 08:29:12;;;;;;;13.18;5.68;;;;;;;22.15;52.56;96115.81;4822802;29;20493;-72
2021/06/04 08:31:37;;;;;;;13.05;5.85;;;;;;;22.16;52.13;96120.06;4822471;29;20053;-72
2021/06/04 08:34:04;;;;;;;10.55;5.88;;;;;;;22.16;51.92;96114.69;4823309;29;20148;-69
2021/06/04 08:36:35;;;;;;;7.03;5.70;;;;;;;22.52;51.95;96120.56;4823092;29;20050;-75
2021/06/04 08:39:05;;;;;;;6.85;5.78;;;;;;;22.37;52.52;96113.91;4823636;29;20046;-72
2021/06/04 08:42:06;;;;;;;8.68;5.65;;;;;;;22.51;51.76;96119.75;4841881;29;20050;-73
2021/06/04 08:45:16;;;;;;;9.35;5.90;;;;;;;22.78;49.77;96117.56;4833737;29;20054;-73
2021/06/04 08:47:48;;;;;;;7.63;5.60;;;;;;;22.69;50.42;96122.28;4826779;29;20046;-71
2021/06/04 08:50:44;;;;;;;7.68;5.50;;;;;;;22.99;49.25;96115.59;4839369;29;20447;-71
2021/06/04 08:53:28;;;;;;;9.07;5.75;;;;;;;22.76;49.67;96119.81;4824682;29;20042;-71
2021/06/04 08:55:57;;;;;;;9.63;5.40;;;;;;;23.15;48.05;96123.00;4823946;29;20054;-71
2021/06/04 08:58:34;;;;;;;8.82;5.72;;;;;;;23.11;47.89;96119.44;4822328;29;20141;-70
2021/06/04 09:01:04;;;;;;;12.43;5.72;;;;;;;23.17;47.30;96121.56;4823227;29;20141;-70
2021/06/04 09:03:35;;;;;;;11.38;6.03;;;;;;;23.06;48.51;96106.19;4848880;29;20053;-71
2021/06/04 09:06:08;;;;;;;8.18;5.38;;;;;;;23.13;49.18;96111.81;4841348;29;20182;-70
2021/06/04 09:08:37;;;;;;;13.10;5.82;;;;;;;23.29;47.92;96110.03;4826595;29;20057;-70
2021/06/04 09:11:31;;;;;;;10.55;5.97;;;;;;;23.54;48.19;96101.94;4825445;29;20061;-70
2021/06/04 09:13:57;;;;;;;7.50;5.50;;;;;;;23.73;46.60;96103.25;4831357;29;20038;-71
2021/06/04 09:17:00;;;;;;;8.00;5.45;;;;;;;23.79;47.45;96107.25;4834067;29;20049;-70
2021/06/04 09:19:31;;;;;;;6.90;6.20;;;;;;;23.49;47.97;96107.56;4842094;29;20050;-70
2021/06/04 09:21:57;;;;;;;8.73;6.10;;;;;;;23.92;47.79;96102.66;4828290;29;20107;-71
2021/06/04 09:24:31;;;;;;;10.27;6.07;;;;;;;24.07;46.54;96115.38;4836524;29;20062;-69
2021/06/04 09:26:57;;;;;;;;;;;;;;;24.00;45.65;96110.56;4824190;29;20054;-70
2021/06/04 09:29:26;;;;;;;13.32;5.97;;;;;;;24.09;46.12;96112.34;4842617;29;19944;-69
2021/06/04 09:32:18;;;;;;;7.63;5.55;;;;;;;23.98;47.59;96118.19;4828548;29;20042;-70
2021/06/04 09:34:43;;;;;;;12.45;6.43;;;;;;;24.23;46.72;96111.94;4825986;29;20477;-70
2021/06/04 09:37:21;;;;;;;7.25;6.32;;;;;;;24.34;46.71;96108.41;4823640;29;20057;-71
2021/06/04 09:39:51;;;;;;;9.77;6.00;;;;;;;24.27;46.13;96110.91;4825973;29;20126;-71
2021/06/04 09:42:29;;;;;;;8.98;5.57;;;;;;;24.53;43.70;96115.03;4826972;29;20058;-70
2021/06/04 09:45:11;;;;;;;9.40;6.00;;;;;;;24.81;44.15;96108.84;4824385;29;20098;-71
2021/06/04 09:47:43;;;;;;;7.07;5.40;;;;;;;24.76;43.40;96109.88;4821054;29;20106;-70
2021/06/04 09:50:17;;;;;;;6.28;5.57;;;;;;;24.76;44.86;96112.56;4824566;29;20059;-71
2021/06/04 09:52:44;;;;;;;11.73;6.13;;;;;;;24.56;43.32;96112.44;4837792;29;20058;-71
2021/06/04 09:55:12;;;;;;;13.18;5.80;;;;;;;24.59;43.57;96113.66;4823803;29;20058;-70
2021/06/04 09:57:54;;;;;;;9.40;5.70;;;;;;;24.70;44.46;96109.38;4833856;29;20090;-69
2021/06/04 10:00:25;;;;;;;7.32;5.43;;;;;;;25.10;42.60;96109.53;4822308;29;20050;-69
2021/06/04 10:03:04;;;;;;;8.02;5.75;;;;;;;25.14;42.35;96105.00;4823114;29;20046;-69
2021/06/04 10:05:32;;;;;;;6.43;5.25;;;;;;;25.22;43.75;96107.50;4820127;29;20533;-71
2021/06/04 10:08:12;;;;;;;7.93;6.05;;;;;;;25.08;44.26;96096.41;4823156;29;20386;-69
2021/06/04 10:10:38;;;;;;;7.22;5.57;;;;;;;25.39;44.02;96095.63;4820562;29;20054;-71
2021/06/04 10:13:12;;;;;;;9.27;5.60;;;;;;;25.45;42.93;96092.66;4834956;29;20148;-70
2021/06/04 10:15:42;;;;;;;10.10;6.20;;;;;;;25.53;41.45;96091.66;4837383;29;20050;-71
2021/06/04 10:18:35;;;;;;;9.30;5.97;;;;;;;25.67;41.55;96089.25;4823461;29;20081;-72
2021/06/04 10:21:25;;;;;;;7.18;5.70;;;;;;;26.06;40.04;96083.94;4822572;29;20054;-74
2021/06/04 10:23:53;;;;;;;7.63;5.60;;;;;;;25.25;42.72;96079.09;4827368;29;20081;-71
2021/06/04 10:26:26;;;;;;;9.57;5.57;;;;;;;25.46;42.13;96078.03;4827719;29;20062;-71
2021/06/04 10:28:55;;;;;;;7.13;5.77;;;;;;;26.20;40.82;96077.25;4820046;29;20050;-70
2021/06/04 10:31:37;;;;;;;6.78;5.30;;;;;;;26.55;38.94;96079.00;4824158;29;20544;-70
2021/06/04 10:34:19;;;;;;;7.10;4.90;;;;;;;26.99;38.96;96072.44;4821174;29;20130;-70
2021/06/04 10:36:51;;;;;;;8.65;5.38;;;;;;;26.72;39.05;96075.88;4824009;29;20057;-70
2021/06/04 10:39:24;;;;;;;7.85;5.22;;;;;;;27.10;36.97;96074.16;4820093;29;20050;-70
2021/06/04 10:42:14;;;;;;;9.73;5.23;;;;;;;28.26;36.23;96064.81;4820919;29;20043;-71
2021/06/04 10:44:40;;;;;;;7.13;4.70;;;;;;;28.75;32.37;96063.78;4822439;29;20061;-72
2021/06/04 10:47:24;;;;;;;7.60;5.20;;;;;;;28.95;33.88;96058.09;4821868;29;20050;-71
2021/06/04 10:49:58;;;;;;;7.78;5.78;;;;;;;28.90;33.20;96053.03;4835680;29;20054;-72
2021/06/04 10:52:36;;;;;;;8.40;5.95;;;;;;;28.79;33.76;96045.63;4827143;29;20066;-72
2021/06/04 10:55:22;;;;;;;8.45;5.80;;;;;;;27.51;36.03;96053.88;4826826;29;20107;-70
2021/06/04 10:57:57;;;;;;;8.00;5.70;;;;;;;28.68;35.20;96042.81;4824258;29;20058;-69
2021/06/04 11:00:30;;;;;;;6.05;5.32;;;;;;;29.16;33.87;96039.28;4809218;29;20051;-72
2021/06/04 11:03:24;;;;;;;9.35;5.05;;;;;;;28.60;33.65;96040.41;4804148;29;20493;-70
2021/06/04 11:06:19;;;;;;;11.27;5.53;;;;;;;28.90;33.70;96029.44;4808634;29;20054;-70
2021/06/04 11:08:47;;;;;;;6.43;5.05;;;;;;;28.96;32.16;96029.84;4817793;29;20102;-71
2021/06/04 11:11:19;;;;;;;7.38;4.88;;;;;;;28.64;32.82;96030.41;4832494;29;20106;-71
2021/06/04 11:14:23;;;;;;;5.97;5.05;;;;;;;28.20;33.02;96023.78;4821042;29;20069;-69
2021/06/04 11:17:17;;;;;;;6.72;5.13;;;;;;;28.18;31.41;96021.44;4821387;29;20136;-70
2021/06/04 11:19:48;;;;;;;7.50;4.93;;;;;;;27.65;33.11;96024.34;4820245;29;20073;-72
2021/06/04 11:22:16;;;;;;;7.68;5.18;;;;;;;27.03;33.54;96028.13;4804581;29;20141;-72
2021/06/04 11:24:55;;;;;;;7.90;5.20;;;;;;;26.84;35.41;96033.59;4821101;29;20470;-70
2021/06/04 11:27:28;;;;;;;5.88;5.25;;;;;;;26.50;34.90;96036.16;4820741;29;20050;-71
2021/06/04 11:29:55;;;;;;;7.88;4.95;;;;;;;26.65;34.83;96016.34;4828978;29;20050;-69
2021/06/04 11:32:27;;;;;;;7.75;5.03;;;;;;;26.49;35.04;96021.09;4825727;29;20062;-72
2021/06/04 11:34:59;;;;;;;11.00;5.50;;;;;;;26.27;34.96;96020.72;4826774;29;20047;-73
2021/06/04 11:37:39;;;;;;;6.90;5.20;;;;;;;25.92;35.74;96022.38;4841148;29;20489;-71
2021/06/04 11:40:10;;;;;;;7.72;5.53;;;;;;;26.14;36.96;96019.34;4827668;29;20119;-71
2021/06/04 11:42:54;;;;;;;7.13;5.10;;;;;;;26.02;38.75;96012.16;4825667;29;20051;-70
2021/06/04 11:45:24;;;;;;;9.40;5.72;;;;;;;26.32;39.15;96009.66;4825288;29;20095;-70
2021/06/04 11:47:49;;;;;;;6.97;5.43;;;;;;;26.81;38.10;96008.13;4824791;29;20106;-69
2021/06/04 11:50:37;;;;;;;8.27;5.38;;;;;;;27.01;34.38;96006.13;4824864;29;20042;-70